Time;durP1;ratioP1;P1;durP2;ratioP2;P2;SDS_P1;SDS_P2;PMS_P1;PMS_P2;Temp;Humidity;BMP_temperature;BMP_pressure;BME280_temperature;BME280_humidity;BME280_pressure;Samples;Min_cycle;Max_cycle;Signal;HPM_P1;HPM_P2
2022/04/02 00:01:17;;;;;;;51.47;30.90;;;10.70;99.90;;;;;;5094219;28;20031;-58
2022/04/02 00:03:46;;;;;;;58.75;34.05;;;10.70;99.90;;;;;;5075792;28;20097;-57
2022/04/02 00:06:23;;;;;;;56.83;33.25;;;10.70;99.90;;;;;;5094088;28;20036;-58
2022/04/02 00:08:54;;;;;;;53.60;31.50;;;10.70;99.90;;;;;;5076018;28;20466;-58
2022/04/02 00:11:21;;;;;;;53.50;31.15;;;10.70;99.90;;;;;;5094228;28;20060;-57
2022/04/02 00:13:54;;;;;;;50.13;31.35;;;10.80;99.90;;;;;;5075883;28;20055;-57
2022/04/02 00:16:21;;;;;;;63.92;36.38;;;10.80;99.90;;;;;;5094234;28;20032;-57
2022/04/02 00:18:50;;;;;;;66.82;36.00;;;10.80;99.90;;;;;;5075615;28;20032;-57
2022/04/02 00:21:17;;;;;;;63.75;35.78;;;10.80;99.90;;;;;;5094384;28;20036;-57
2022/04/02 00:23:46;;;;;;;78.18;38.00;;;10.70;99.90;;;;;;5094025;28;20032;-58
2022/04/02 00:26:13;;;;;;;72.93;37.58;;;10.60;99.90;;;;;;5075894;28;20085;-57
2022/04/02 00:28:41;;;;;;;82.38;42.92;;;10.60;99.90;;;;;;5076078;28;20032;-57
2022/04/02 00:31:13;;;;;;;145.57;60.08;;;10.60;99.90;;;;;;5075913;28;20024;-58
2022/04/02 00:33:42;;;;;;;245.70;83.82;;;10.60;99.90;;;;;;5094171;28;20103;-57
2022/04/02 00:36:13;;;;;;;196.63;69.88;;;10.60;99.90;;;;;;5094068;28;20114;-57
2022/04/02 00:38:40;;;;;;;200.73;72.13;;;10.70;99.90;;;;;;5076081;28;20489;-57
2022/04/02 00:41:16;;;;;;;157.38;62.55;;;10.60;99.90;;;;;;5095006;28;20424;-57
2022/04/02 00:44:14;;;;;;;153.90;62.38;;;10.70;99.90;;;;;;5079313;28;20024;-57
2022/04/02 00:46:44;;;;;;;222.07;91.85;;;10.70;99.90;;;;;;5097062;28;20036;-57
2022/04/02 00:49:14;;;;;;;127.75;61.50;;;10.70;99.90;;;;;;5097603;28;20024;-58
2022/04/02 00:51:42;;;;;;;93.33;49.63;;;10.70;99.90;;;;;;5097603;28;20032;-57
2022/04/02 00:54:17;;;;;;;70.22;41.28;;;10.70;99.90;;;;;;5078975;28;20052;-57
2022/04/02 00:56:44;;;;;;;66.18;37.28;;;10.60;99.90;;;;;;5077264;28;20393;-57
2022/04/02 00:59:12;;;;;;;54.95;34.53;;;10.60;99.90;;;;;;5078877;28;20492;-58
2022/04/02 01:01:39;;;;;;;57.20;35.65;;;10.50;99.90;;;;;;5079044;28;20048;-57
2022/04/02 01:04:09;;;;;;;61.72;37.78;;;10.60;99.90;;;;;;5079154;28;20105;-58
2022/04/02 01:06:42;;;;;;;60.90;35.75;;;10.50;99.90;;;;;;5078629;28;20047;-57
2022/04/02 01:09:13;;;;;;;60.20;34.78;;;10.50;99.90;;;;;;5078884;28;20488;-57
2022/04/02 01:11:42;;;;;;;51.60;33.65;;;10.50;99.90;;;;;;5078681;28;20401;-57
2022/04/02 01:14:17;;;;;;;57.65;36.72;;;10.50;99.90;;;;;;5096918;28;20097;-57
2022/04/02 01:16:48;;;;;;;55.40;36.50;;;10.50;99.90;;;;;;5078827;28;20036;-57
2022/04/02 01:19:20;;;;;;;62.22;38.03;;;10.50;99.90;;;;;;5078528;28;20062;-57
2022/04/02 01:21:52;;;;;;;56.10;36.22;;;10.50;99.90;;;;;;5078571;28;20062;-57
2022/04/02 01:24:29;;;;;;;60.33;38.20;;;10.40;99.90;;;;;;5078610;28;20032;-57
2022/04/02 01:27:00;;;;;;;53.80;34.55;;;10.50;99.90;;;;;;5078572;28;20024;-57
2022/04/02 01:29:33;;;;;;;53.55;34.53;;;10.50;99.90;;;;;;5078417;28;20028;-57
2022/04/02 01:32:01;;;;;;;56.42;34.15;;;10.40;99.90;;;;;;5078345;28;20032;-57
2022/04/02 01:34:32;;;;;;;;;;;10.40;99.90;;;;;;5078808;28;20024;-57
2022/04/02 01:37:06;;;;;;;52.00;30.35;;;10.40;99.90;;;;;;5112308;28;20011;-57
2022/04/02 01:39:39;;;;;;;52.92;32.22;;;10.40;99.90;;;;;;5078389;28;20031;-57
2022/04/02 01:42:07;;;;;;;57.03;33.75;;;10.40;99.90;;;;;;5078267;28;20447;-57
2022/04/02 01:44:49;;;;;;;56.10;34.53;;;10.30;99.90;;;;;;5078131;28;20032;-57
2022/04/02 01:47:17;;;;;;;45.63;29.42;;;10.20;99.90;;;;;;5078250;28;20024;-57
2022/04/02 01:49:46;;;;;;;46.00;28.05;;;10.20;99.90;;;;;;5078081;28;20024;-57
2022/04/02 01:52:16;;;;;;;33.60;22.25;;;10.30;99.90;;;;;;5077657;28;20111;-57
2022/04/02 01:54:44;;;;;;;36.88;24.35;;;10.20;99.90;;;;;;5096144;28;20044;-58
2022/04/02 01:57:15;;;;;;;39.33;25.30;;;10.20;99.90;;;;;;5077887;28;20496;-57
2022/04/02 01:59:44;;;;;;;37.03;22.77;;;10.20;99.90;;;;;;5077972;28;20348;-57
2022/04/02 02:02:13;;;;;;;37.90;22.38;;;10.20;99.90;;;;;;5077901;28;20389;-57
2022/04/02 02:04:39;;;;;;;35.72;22.75;;;10.20;99.90;;;;;;5077784;28;20126;-57
2022/04/02 02:07:06;;;;;;;36.45;22.02;;;10.20;99.90;;;;;;5077715;28;20066;-57
2022/04/02 02:09:34;;;;;;;42.20;26.10;;;10.20;99.90;;;;;;5077710;28;20112;-57
2022/04/02 02:12:18;;;;;;;44.72;27.85;;;10.20;99.90;;;;;;5077473;28;20119;-57
2022/04/02 02:14:54;;;;;;;44.65;27.73;;;10.20;99.90;;;;;;5077478;28;20367;-57
2022/04/02 02:17:20;;;;;;;53.30;30.70;;;10.20;99.90;;;;;;5095835;28;20040;-57
2022/04/02 02:19:55;;;;;;;65.60;36.53;;;10.20;99.90;;;;;;5111286;28;20032;-57
2022/04/02 02:22:21;;;;;;;73.85;41.28;;;10.20;99.90;;;;;;5077187;28;20089;-57
2022/04/02 02:24:47;;;;;;;64.00;36.85;;;10.20;99.90;;;;;;5095680;28;20441;-57
2022/04/02 02:27:13;;;;;;;61.03;35.25;;;10.20;99.90;;;;;;5077432;28;20381;-57
2022/04/02 02:29:39;;;;;;;52.80;30.58;;;10.20;99.90;;;;;;5094478;28;20103;-57
2022/04/02 02:32:16;;;;;;;46.83;28.67;;;10.20;99.90;;;;;;5077090;28;20028;-58
2022/04/02 02:37:30;;;;;;;63.83;34.72;;;10.00;99.90;;;;;;5094183;28;20488;-58
2022/04/02 02:40:03;;;;;;;52.72;31.33;;;10.00;99.90;;;;;;5077090;28;20028;-57
2022/04/02 02:42:31;;;;;;;69.72;37.50;;;10.00;99.90;;;;;;5060490;28;20036;-57
2022/04/02 02:45:11;;;;;;;93.53;49.58;;;10.00;99.90;;;;;;5077011;28;20063;-58
2022/04/02 02:47:38;;;;;;;62.95;36.38;;;10.00;99.90;;;;;;5077160;28;20028;-57
2022/04/02 02:50:05;;;;;;;61.28;34.50;;;10.00;99.90;;;;;;5077061;28;20028;-57
2022/04/02 02:52:41;;;;;;;60.10;33.38;;;9.90;99.90;;;;;;5076881;28;20504;-57
2022/04/02 02:55:09;;;;;;;52.80;30.15;;;9.90;99.90;;;;;;5077000;28;20496;-58
2022/04/02 02:57:41;;;;;;;45.40;25.48;;;9.90;99.90;;;;;;5076853;28;20024;-57
2022/04/02 03:00:08;;;;;;;36.80;22.50;;;9.90;99.90;;;;;;5076903;28;20039;-57
2022/04/02 03:02:39;;;;;;;36.67;22.05;;;9.90;99.90;;;;;;5076929;28;20032;-57
2022/04/02 03:05:13;;;;;;;33.58;19.98;;;9.80;99.90;;;;;;5076074;28;20024;-58
2022/04/02 03:07:51;;;;;;;37.13;19.60;;;9.70;99.90;;;;;;5076925;28;20024;-58
2022/04/02 03:10:28;;;;;;;33.67;19.42;;;9.70;99.90;;;;;;5060976;28;20055;-58
2022/04/02 03:12:57;;;;;;;37.65;22.10;;;9.60;99.90;;;;;;5076624;28;20065;-58
2022/04/02 03:15:27;;;;;;;39.33;22.33;;;9.60;99.90;;;;;;5076719;28;20040;-57
2022/04/02 03:18:01;;;;;;;37.50;21.17;;;9.50;99.90;;;;;;5076618;28;20115;-57
2022/04/02 03:20:28;;;;;;;31.50;18.92;;;9.50;99.90;;;;;;5094636;28;20504;-57
2022/04/02 03:22:55;;;;;;;31.60;18.98;;;9.50;99.90;;;;;;5060121;28;20051;-58
2022/04/02 03:25:22;;;;;;;35.08;18.92;;;9.40;99.90;;;;;;5076750;28;20035;-58
2022/04/02 03:27:49;;;;;;;28.98;17.77;;;9.40;99.90;;;;;;5076673;28;20024;-57
2022/04/02 03:30:18;;;;;;;32.00;18.40;;;9.30;99.90;;;;;;5076357;28;20063;-57
2022/04/02 03:32:47;;;;;;;;;;;9.30;99.90;;;;;;5076974;28;20024;-57
2022/04/02 03:35:14;;;;;;;29.80;16.48;;;9.30;99.90;;;;;;5094535;28;19998;-57
2022/04/02 03:37:46;;;;;;;24.83;14.45;;;9.30;99.90;;;;;;5076422;28;20538;-57
2022/04/02 03:40:20;;;;;;;28.40;16.02;;;9.30;99.90;;;;;;5076588;28;20024;-58
2022/04/02 03:42:46;;;;;;;28.20;15.98;;;9.20;99.90;;;;;;5076228;28;20028;-57
2022/04/02 03:45:18;;;;;;;27.90;16.23;;;9.20;99.90;;;;;;5076550;28;20151;-58
2022/04/02 03:47:48;;;;;;;30.58;18.58;;;9.20;99.90;;;;;;5076261;28;20066;-57
2022/04/02 03:50:15;;;;;;;35.20;20.25;;;9.20;99.90;;;;;;5043485;28;20043;-58
2022/04/02 03:52:49;;;;;;;36.63;21.48;;;9.20;99.90;;;;;;5094581;28;20024;-57
2022/04/02 03:55:20;;;;;;;36.53;20.58;;;9.20;99.90;;;;;;5076052;28;20040;-57
2022/04/02 03:57:49;;;;;;;100.53;48.33;;;9.20;99.90;;;;;;5076160;28;20024;-57
2022/04/02 04:00:19;;;;;;;225.43;111.13;;;9.20;99.90;;;;;;5076036;28;20533;-57
2022/04/02 04:02:54;;;;;;;156.57;79.70;;;9.20;99.90;;;;;;5076291;28;20027;-57
2022/04/02 04:05:26;;;;;;;112.85;59.47;;;9.10;99.90;;;;;;5077339;28;20031;-57
2022/04/02 04:07:54;;;;;;;54.85;30.63;;;9.10;99.90;;;;;;5094337;28;20028;-57
2022/04/02 04:10:22;;;;;;;48.30;28.08;;;9.10;99.90;;;;;;5076030;28;20016;-58
2022/04/02 04:12:50;;;;;;;63.25;35.15;;;9.10;99.90;;;;;;5075790;28;20086;-57
2022/04/02 04:15:18;;;;;;;62.53;34.13;;;9.20;99.90;;;;;;5077171;28;20044;-57
2022/04/02 04:17:46;;;;;;;54.83;31.40;;;9.10;99.90;;;;;;5079910;28;20613;-58
2022/04/02 04:20:13;;;;;;;52.10;28.80;;;9.10;99.90;;;;;;5079488;28;20024;-57
2022/04/02 04:22:40;;;;;;;65.63;30.40;;;9.20;99.90;;;;;;5097957;28;20111;-57
2022/04/02 04:25:11;;;;;;;59.35;28.38;;;9.30;99.90;;;;;;5063723;28;20351;-57
2022/04/02 04:27:38;;;;;;;55.85;26.92;;;9.30;99.90;;;;;;5097813;28;20047;-57
2022/04/02 04:30:08;;;;;;;43.78;22.55;;;9.30;99.90;;;;;;5096589;28;20024;-57
2022/04/02 04:32:34;;;;;;;27.50;15.77;;;9.40;99.90;;;;;;5079560;28;20028;-57
2022/04/02 04:35:00;;;;;;;28.73;16.70;;;9.30;99.90;;;;;;5097690;28;20032;-58
2022/04/02 04:37:26;;;;;;;25.52;14.52;;;9.20;99.90;;;;;;5097705;28;20470;-57
2022/04/02 04:39:53;;;;;;;22.58;14.20;;;9.20;99.90;;;;;;5079409;28;20028;-58
2022/04/02 04:42:21;;;;;;;17.48;12.95;;;9.20;99.90;;;;;;5079243;28;20036;-58
2022/04/02 04:44:51;;;;;;;17.15;12.55;;;9.20;99.90;;;;;;5079518;28;20028;-57
2022/04/02 04:47:19;;;;;;;15.35;12.13;;;9.20;99.90;;;;;;5079203;28;20024;-57
2022/04/02 04:49:49;;;;;;;20.55;14.23;;;9.20;99.90;;;;;;5097530;28;20027;-57
2022/04/02 04:52:15;;;;;;;25.70;15.07;;;9.20;99.90;;;;;;5079074;28;20039;-57
2022/04/02 04:54:42;;;;;;;28.33;16.05;;;9.20;99.90;;;;;;5079105;28;20488;-58
2022/04/02 04:57:18;;;;;;;21.50;15.02;;;9.20;99.90;;;;;;5078993;28;20278;-57
2022/04/02 04:59:51;;;;;;;20.42;14.48;;;9.20;99.90;;;;;;5079014;28;20040;-57
2022/04/02 05:02:18;;;;;;;22.77;15.45;;;9.20;99.90;;;;;;5079097;28;20136;-58
2022/04/02 05:04:44;;;;;;;27.58;16.10;;;9.20;99.90;;;;;;5078883;28;20024;-58
2022/04/02 05:07:12;;;;;;;23.67;16.60;;;9.10;99.90;;;;;;5078798;28;20384;-58
2022/04/02 05:09:42;;;;;;;23.95;15.77;;;9.10;99.90;;;;;;5078914;28;20028;-57
2022/04/02 05:12:10;;;;;;;22.77;15.52;;;9.20;99.90;;;;;;5078785;28;20433;-58
2022/04/02 05:14:41;;;;;;;25.40;15.88;;;9.20;99.90;;;;;;5078668;28;20432;-57
2022/04/02 05:17:08;;;;;;;23.67;15.90;;;9.20;99.90;;;;;;5078946;28;20036;-58
2022/04/02 05:19:36;;;;;;;26.95;15.52;;;9.20;99.90;;;;;;5078612;28;20449;-57
2022/04/02 05:22:04;;;;;;;23.15;16.15;;;9.10;99.90;;;;;;5078684;28;20028;-58
2022/04/02 05:24:37;;;;;;;24.85;15.93;;;9.10;99.90;;;;;;5078628;28;20039;-57
2022/04/02 05:27:03;;;;;;;20.23;15.07;;;9.20;99.90;;;;;;5077648;28;20035;-58
2022/04/02 05:29:30;;;;;;;33.97;17.13;;;9.20;99.90;;;;;;5096718;28;20041;-58
2022/04/02 05:31:56;;;;;;;30.35;18.95;;;9.30;99.90;;;;;;5096521;28;20069;-57
2022/04/02 05:34:22;;;;;;;24.67;16.90;;;9.30;99.90;;;;;;5096658;28;20020;-57
2022/04/02 05:36:48;;;;;;;27.10;16.15;;;9.30;99.90;;;;;;5078520;28;20110;-58
2022/04/02 05:39:14;;;;;;;29.13;17.73;;;9.30;99.90;;;;;;5078235;28;20096;-58
2022/04/02 05:41:40;;;;;;;28.55;17.50;;;9.30;99.90;;;;;;5096531;28;20489;-57
2022/04/02 05:44:07;;;;;;;28.95;20.42;;;9.20;99.90;;;;;;5078298;28;20055;-57
2022/04/02 05:46:33;;;;;;;32.92;22.17;;;9.10;99.90;;;;;;5077934;28;20024;-57
2022/04/02 05:48:59;;;;;;;35.78;23.33;;;9.10;99.90;;;;;;5096483;28;20092;-58
2022/04/02 05:51:25;;;;;;;39.67;22.67;;;9.10;99.90;;;;;;5096257;28;20111;-57
2022/04/02 05:53:52;;;;;;;42.72;26.88;;;9.00;99.90;;;;;;5096227;28;20107;-58
2022/04/02 05:56:19;;;;;;;36.13;23.55;;;9.10;99.90;;;;;;5096118;28;20359;-57
2022/04/02 05:58:45;;;;;;;34.25;22.88;;;9.10;99.90;;;;;;5096210;28;20047;-57
2022/04/02 06:01:11;;;;;;;36.10;23.42;;;9.10;99.90;;;;;;5095655;28;20396;-57
2022/04/02 06:03:39;;;;;;;35.67;24.20;;;9.20;99.90;;;;;;5096156;28;20111;-57
2022/04/02 06:06:09;;;;;;;39.20;23.42;;;9.30;99.90;;;;;;5095917;28;20098;-58
2022/04/02 06:08:35;;;;;;;37.67;24.50;;;9.30;99.90;;;;;;5096082;28;20062;-58
2022/04/02 06:11:01;;;;;;;35.85;24.40;;;9.30;99.90;;;;;;5095646;28;20028;-57
2022/04/02 06:13:27;;;;;;;40.30;24.67;;;9.40;99.90;;;;;;5095731;28;20050;-58
2022/04/02 06:15:54;;;;;;;38.03;26.60;;;9.40;99.90;;;;;;5095706;28;20075;-58
2022/04/02 06:18:20;;;;;;;38.40;25.25;;;9.50;99.90;;;;;;5077680;28;20040;-57
2022/04/02 06:20:49;;;;;;;37.83;24.63;;;9.60;99.90;;;;;;5095520;28;20032;-57
2022/04/02 06:23:16;;;;;;;47.53;27.48;;;9.70;99.90;;;;;;5095552;28;20032;-57
2022/04/02 06:25:42;;;;;;;47.90;27.80;;;9.80;99.90;;;;;;5095504;28;20039;-58
2022/04/02 06:28:08;;;;;;;45.00;24.42;;;10.00;99.90;;;;;;5095447;28;20441;-57
2022/04/02 06:30:34;;;;;;;52.42;28.08;;;10.00;99.90;;;;;;5095406;28;20047;-57
2022/04/02 06:33:00;;;;;;;59.17;29.27;;;10.20;99.90;;;;;;5095538;28;20036;-57
2022/04/02 06:35:27;;;;;;;49.25;26.27;;;10.30;99.90;;;;;;5077271;28;20016;-58
2022/04/02 06:37:54;;;;;;;65.47;33.25;;;10.40;99.90;;;;;;5060654;28;20032;-57
2022/04/02 06:40:21;;;;;;;35.10;21.65;;;10.30;99.90;;;;;;5095433;28;20043;-58
2022/04/02 06:42:48;;;;;;;30.40;19.98;;;10.40;99.90;;;;;;5095116;28;20020;-58
2022/04/02 06:45:25;;;;;;;34.88;22.65;;;10.40;99.90;;;;;;5076942;28;20470;-58
2022/04/02 06:47:51;;;;;;;29.08;19.42;;;10.40;99.90;;;;;;5095121;28;20032;-57
2022/04/02 06:50:17;;;;;;;26.90;18.27;;;10.50;99.90;;;;;;5095118;28;20028;-58
2022/04/02 06:52:44;;;;;;;28.23;17.80;;;10.60;99.90;;;;;;5095105;28;20027;-57
2022/04/02 06:55:11;;;;;;;28.02;18.92;;;10.70;99.90;;;;;;5095014;28;20028;-58
2022/04/02 06:57:41;;;;;;;28.05;19.08;;;10.70;99.90;;;;;;5095089;28;20097;-58
2022/04/02 07:00:08;;;;;;;21.45;14.85;;;10.80;99.90;;;;;;5095174;28;20024;-58
2022/04/02 07:02:34;;;;;;;18.85;14.57;;;10.80;99.90;;;;;;5094931;28;20028;-57
2022/04/02 07:05:00;;;;;;;21.42;15.55;;;10.80;99.90;;;;;;5094639;28;20034;-57
2022/04/02 07:07:26;;;;;;;37.70;18.42;;;10.70;99.90;;;;;;5094764;28;20030;-57
2022/04/02 07:09:52;;;;;;;32.60;17.65;;;10.60;99.90;;;;;;5094312;28;20054;-58
2022/04/02 07:12:18;;;;;;;23.30;15.95;;;10.60;99.90;;;;;;5073101;28;20474;-58
2022/04/02 07:14:44;;;;;;;25.65;16.77;;;10.60;99.90;;;;;;5074548;28;20044;-57
2022/04/02 07:17:10;;;;;;;25.92;17.95;;;10.60;99.90;;;;;;5074670;28;20526;-57
2022/04/02 07:19:38;;;;;;;25.92;16.65;;;10.60;99.90;;;;;;5064070;28;20086;-58
2022/04/02 07:22:08;;;;;;;26.20;17.65;;;10.50;99.90;;;;;;5094775;28;20024;-57
2022/04/02 07:24:38;;;;;;;26.05;17.73;;;10.60;99.90;;;;;;5094690;28;20107;-58
2022/04/02 07:27:05;;;;;;;26.55;18.38;;;10.60;99.90;;;;;;5094697;28;20309;-58
2022/04/02 07:29:32;;;;;;;29.35;17.50;;;10.60;99.90;;;;;;5094629;28;20089;-58
2022/04/02 07:31:58;;;;;;;22.85;16.95;;;10.60;99.90;;;;;;5094278;28;20064;-57
2022/04/02 07:34:25;;;;;;;24.92;17.88;;;10.60;99.90;;;;;;5076522;28;20035;-57
2022/04/02 07:37:29;;;;;;;24.13;17.42;;;10.60;99.90;;;;;;5094600;28;20035;-58
2022/04/02 07:40:22;;;;;;;24.83;18.48;;;10.60;99.90;;;;;;5063381;28;20054;-57
2022/04/02 07:43:07;;;;;;;23.80;17.48;;;10.60;99.90;;;;;;5072116;28;20039;-58
2022/04/02 07:45:47;;;;;;;25.95;17.35;;;10.70;99.90;;;;;;5076903;28;20089;-57
2022/04/02 07:48:18;;;;;;;30.33;19.83;;;10.70;99.90;;;;;;5076239;28;20028;-58
2022/04/02 07:50:46;;;;;;;35.08;22.95;;;10.80;99.90;;;;;;5096365;28;20086;-58
2022/04/02 07:53:21;;;;;;;27.90;18.98;;;10.90;99.90;;;;;;5098409;28;20085;-58
2022/04/02 07:55:57;;;;;;;26.60;18.92;;;11.00;99.90;;;;;;5098624;28;20020;-58
2022/04/02 07:58:28;;;;;;;27.67;18.33;;;10.80;99.90;;;;;;5098478;28;20070;-58
2022/04/02 08:00:56;;;;;;;22.17;15.77;;;10.90;99.90;;;;;;5098466;28;20028;-58
2022/04/02 08:03:28;;;;;;;25.02;16.60;;;11.00;99.90;;;;;;5080362;28;20087;-58
2022/04/02 08:05:55;;;;;;;24.90;17.20;;;10.90;99.90;;;;;;5098455;28;20060;-58
2022/04/02 08:08:25;;;;;;;24.20;16.30;;;11.00;99.90;;;;;;5098231;28;20040;-58
2022/04/02 08:10:55;;;;;;;25.08;16.85;;;10.90;99.90;;;;;;5098128;28;20473;-58
2022/04/02 08:13:23;;;;;;;26.00;18.15;;;11.00;99.90;;;;;;5098110;28;20035;-58
2022/04/02 08:15:56;;;;;;;24.02;16.30;;;11.00;99.90;;;;;;5076401;28;20516;-58
2022/04/02 08:18:26;;;;;;;26.88;17.77;;;11.00;99.90;;;;;;5077762;28;20078;-58
2022/04/02 08:20:54;;;;;;;29.73;18.17;;;11.00;99.90;;;;;;5077695;28;20084;-58
2022/04/02 08:23:24;;;;;;;25.45;17.17;;;10.90;99.90;;;;;;5077983;28;20068;-58
2022/04/02 08:26:14;;;;;;;26.40;16.88;;;10.60;99.90;;;;;;5076183;28;20184;-58
2022/04/02 08:29:09;;;;;;;22.58;15.68;;;10.60;99.90;;;;;;5076648;28;20035;-58
2022/04/02 08:32:10;;;;;;;22.42;15.52;;;10.60;99.90;;;;;;5077451;28;20021;-58
2022/04/02 08:34:54;;;;;;;;;;;10.50;99.90;;;;;;5061788;28;20043;-58
2022/04/02 08:37:45;;;;;;;25.63;16.77;;;10.60;99.90;;;;;;5077453;28;19912;-58
2022/04/02 08:40:36;;;;;;;28.92;18.58;;;10.50;99.90;;;;;;5076245;28;20033;-58
2022/04/02 08:43:13;;;;;;;31.83;19.45;;;10.60;99.90;;;;;;5077181;28;20085;-58
2022/04/02 08:46:02;;;;;;;29.23;18.60;;;10.70;99.90;;;;;;5077191;28;20111;-58
2022/04/02 08:48:33;;;;;;;27.15;18.52;;;10.60;99.90;;;;;;5070704;28;20139;-58
2022/04/02 08:51:44;;;;;;;31.88;21.63;;;10.50;99.90;;;;;;5077113;28;20056;-58
2022/04/02 08:54:28;;;;;;;25.85;18.33;;;10.60;99.90;;;;;;5075920;28;20028;-58
2022/04/02 08:57:32;;;;;;;27.92;19.98;;;10.80;99.90;;;;;;5075746;28;20097;-58
2022/04/02 09:00:06;;;;;;;37.50;24.75;;;11.00;99.90;;;;;;5074663;28;20040;-58
2022/04/02 09:02:54;;;;;;;29.83;20.85;;;11.20;99.90;;;;;;5074229;28;20086;-58
2022/04/02 09:05:34;;;;;;;32.22;22.35;;;11.30;99.90;;;;;;5076949;28;20021;-58
2022/04/02 09:08:19;;;;;;;34.30;23.27;;;11.30;99.90;;;;;;5075537;28;20043;-58
2022/04/02 09:10:57;;;;;;;48.08;26.25;;;11.50;99.90;;;;;;5075329;28;20081;-59
2022/04/02 09:13:46;;;;;;;35.05;21.80;;;11.80;99.90;;;;;;5076819;28;20032;-58
2022/04/02 09:16:38;;;;;;;33.45;21.42;;;11.90;99.90;;;;;;5057006;28;20490;-58
2022/04/02 09:19:29;;;;;;;31.35;21.13;;;12.40;99.90;;;;;;5076241;28;20079;-58
2022/04/02 09:22:28;;;;;;;34.45;21.67;;;12.80;99.90;;;;;;5075419;28;20493;-59
2022/04/02 09:25:15;;;;;;;34.30;20.92;;;13.10;99.90;;;;;;5053429;28;20041;-58
2022/04/02 09:28:00;;;;;;;29.63;19.20;;;13.70;99.90;;;;;;5076544;28;20036;-58
2022/04/02 09:30:47;;;;;;;32.35;20.92;;;13.60;99.90;;;;;;5076523;28;20108;-58
2022/04/02 09:33:31;;;;;;;30.65;20.13;;;13.60;99.90;;;;;;5075199;28;20075;-58
2022/04/02 09:36:29;;;;;;;32.60;19.30;;;13.60;99.90;;;;;;5076487;28;20121;-59
2022/04/02 09:39:05;;;;;;;40.63;23.05;;;13.70;99.90;;;;;;5076553;28;20040;-58
2022/04/02 09:41:37;;;;;;;32.95;21.25;;;14.10;99.90;;;;;;5076342;28;20525;-59
2022/04/02 09:44:40;;;;;;;28.85;19.08;;;14.70;99.90;;;;;;5075985;28;20120;-58
2022/04/02 09:47:32;;;;;;;36.35;17.25;;;14.90;99.90;;;;;;5070418;28;20075;-58
2022/04/02 09:50:10;;;;;;;22.65;15.65;;;14.70;99.90;;;;;;5076183;28;20029;-58
2022/04/02 09:52:41;;;;;;;23.67;15.07;;;14.30;99.90;;;;;;5074754;28;20032;-58
2022/04/02 09:55:11;;;;;;;27.70;17.70;;;13.90;99.90;;;;;;5074669;28;20025;-58
2022/04/02 09:57:53;;;;;;;21.67;15.75;;;14.00;99.90;;;;;;5075881;28;20043;-58
2022/04/02 10:00:22;;;;;;;30.63;20.50;;;13.80;99.90;;;;;;5091520;28;20028;-58
2022/04/02 10:03:08;;;;;;;43.22;21.58;;;13.50;99.90;;;;;;5075592;28;20107;-58
2022/04/02 10:05:44;;;;;;;32.70;21.52;;;13.30;99.90;;;;;;5075711;28;20051;-58
2022/04/02 10:08:12;;;;;;;24.50;18.90;;;12.90;99.90;;;;;;5075575;28;20035;-58
2022/04/02 10:10:41;;;;;;;24.98;19.17;;;12.50;99.90;;;;;;5075720;28;20020;-58
2022/04/02 10:13:09;;;;;;;23.48;18.00;;;12.30;99.90;;;;;;5075580;28;20488;-58
2022/04/02 10:15:41;;;;;;;27.60;20.50;;;11.90;99.90;;;;;;5091597;28;20040;-58
2022/04/02 10:18:11;;;;;;;33.08;22.08;;;11.40;99.90;;;;;;5077520;28;20070;-58
2022/04/02 10:20:38;;;;;;;;;;;10.70;99.90;;;;;;5077883;28;20400;-58
2022/04/02 10:23:12;;;;;;;41.35;22.40;;;10.30;99.90;;;;;;5095653;28;19998;-57
2022/04/02 10:26:04;;;;;;;41.47;22.42;;;10.00;99.90;;;;;;5095632;28;20032;-58
2022/04/02 10:28:33;;;;;;;47.25;23.70;;;9.80;99.90;;;;;;5095766;28;20473;-57
2022/04/02 10:31:01;;;;;;;62.97;31.83;;;9.40;99.90;;;;;;5095383;28;20385;-57
2022/04/02 10:33:34;;;;;;;31.27;17.70;;;9.30;99.90;;;;;;5095833;28;20035;-57
2022/04/02 10:36:03;;;;;;;23.35;11.65;;;9.00;99.90;;;;;;5095385;28;20034;-58
2022/04/02 10:38:45;;;;;;;13.02;7.65;;;8.30;99.90;;;;;;5095478;28;20020;-57
2022/04/02 10:41:12;;;;;;;;;;;7.70;99.90;;;;;;5095892;28;20397;-57
2022/04/02 10:43:44;;;;;;;21.67;9.65;;;7.60;99.90;;;;;;5095214;28;19908;-58
2022/04/02 10:46:11;;;;;;;43.20;22.83;;;7.60;99.90;;;;;;5095062;28;20123;-57
2022/04/02 10:48:56;;;;;;;12.60;7.45;;;7.50;99.90;;;;;;5095165;28;20354;-57
2022/04/02 10:51:24;;;;;;;16.70;9.57;;;7.30;99.90;;;;;;5095263;28;20029;-57
2022/04/02 10:54:03;;;;;;;9.77;6.05;;;7.20;99.90;;;;;;5095096;28;20028;-57
2022/04/02 10:56:41;;;;;;;12.45;6.45;;;7.10;99.90;;;;;;5095144;28;20516;-57
2022/04/02 10:59:10;;;;;;;23.75;11.02;;;7.10;99.90;;;;;;5094780;28;20024;-58
2022/04/02 11:01:41;;;;;;;7.07;3.53;;;7.00;99.90;;;;;;5076849;28;20110;-57
2022/04/02 11:04:36;;;;;;;6.25;3.75;;;6.80;99.90;;;;;;5076946;28;20041;-57
2022/04/02 11:07:02;;;;;;;4.63;2.70;;;6.80;99.90;;;;;;5094743;28;20024;-58
2022/04/02 11:09:41;;;;;;;6.68;3.25;;;6.80;99.90;;;;;;5094947;28;20020;-57
2022/04/02 11:12:15;;;;;;;3.85;2.42;;;6.60;99.90;;;;;;5094799;28;20541;-57
2022/04/02 11:14:52;;;;;;;8.52;2.88;;;6.50;99.90;;;;;;5076714;28;20123;-57
2022/04/02 11:17:29;;;;;;;8.07;3.05;;;6.50;99.90;;;;;;5094837;28;20024;-58
2022/04/02 11:20:32;;;;;;;6.10;3.00;;;6.30;99.90;;;;;;5094398;28;20027;-57
2022/04/02 11:23:12;;;;;;;5.60;2.25;;;6.40;99.90;;;;;;5084318;28;20078;-57
2022/04/02 11:25:44;;;;;;;19.38;7.55;;;6.50;99.90;;;;;;5094315;28;20036;-57
2022/04/02 11:28:15;;;;;;;11.60;3.47;;;6.60;99.90;;;;;;5094385;28;20023;-58
2022/04/02 11:30:47;;;;;;;7.00;3.00;;;6.70;99.90;;;;;;5094539;28;20536;-58
2022/04/02 11:33:19;;;;;;;8.93;3.22;;;6.80;99.90;;;;;;5076029;28;20032;-58
2022/04/02 11:35:51;;;;;;;5.97;3.22;;;6.80;99.90;;;;;;5076585;28;20024;-59
2022/04/02 11:38:26;;;;;;;6.63;2.72;;;6.90;99.90;;;;;;5094605;28;20024;-59
2022/04/02 11:41:20;;;;;;;4.97;2.22;;;6.90;99.90;;;;;;5076349;28;20069;-59
2022/04/02 11:43:54;;;;;;;4.88;2.50;;;7.10;99.90;;;;;;5094335;28;20035;-58
2022/04/02 11:46:21;;;;;;;8.35;2.78;;;7.20;99.90;;;;;;5094451;28;20028;-59
2022/04/02 11:48:56;;;;;;;5.70;3.00;;;7.40;99.90;;;;;;5094167;28;20024;-59
2022/04/02 11:51:30;;;;;;;5.90;2.90;;;7.20;99.90;;;;;;5094432;28;20477;-59
2022/04/02 11:54:08;;;;;;;4.60;2.20;;;7.30;99.90;;;;;;5094440;28;20028;-59
2022/04/02 11:56:47;;;;;;;6.32;2.60;;;7.30;99.90;;;;;;5094358;28;20450;-58
2022/04/02 11:59:15;;;;;;;6.97;4.80;;;7.40;99.90;;;;;;5094406;28;20032;-59
2022/04/02 12:01:49;;;;;;;6.72;4.78;;;7.60;99.90;;;;;;5094368;28;20084;-58
2022/04/02 12:04:17;;;;;;;10.05;5.28;;;7.60;99.90;;;;;;5090089;28;20036;-58
2022/04/02 12:06:46;;;;;;;13.57;5.63;;;7.80;99.90;;;;;;5094244;28;20028;-58
2022/04/02 12:09:20;;;;;;;5.82;2.60;;;8.20;99.90;;;;;;5094311;28;20028;-58
2022/04/02 12:11:58;;;;;;;4.18;2.67;;;8.50;99.90;;;;;;5076204;28;20027;-58
2022/04/02 12:14:39;;;;;;;4.57;3.20;;;9.10;99.90;;;;;;5076060;28;20048;-58
2022/04/02 12:17:09;;;;;;;10.02;3.65;;;9.40;99.90;;;;;;5076330;28;20032;-58
2022/04/02 12:19:34;;;;;;;7.32;3.08;;;10.10;99.90;;;;;;5076026;28;20123;-58
2022/04/02 12:22:01;;;;;;;7.22;3.53;;;10.80;99.90;;;;;;5094264;28;20075;-58
2022/04/02 12:24:38;;;;;;;6.15;2.55;;;11.00;99.90;;;;;;5093979;28;20032;-58
2022/04/02 12:27:07;;;;;;;7.57;3.00;;;11.40;99.90;;;;;;5093977;28;20035;-58
2022/04/02 12:29:33;;;;;;;3.47;2.60;;;12.10;99.90;;;;;;5094048;28;20115;-58
2022/04/02 12:32:00;;;;;;;4.55;2.80;;;12.50;99.90;;;;;;5093896;28;20028;-58
2022/04/02 12:34:28;;;;;;;7.22;3.63;;;11.90;99.90;;;;;;5094013;28;20028;-58
2022/04/02 12:37:03;;;;;;;5.20;2.67;;;11.60;99.90;;;;;;5096101;28;20085;-58
2022/04/02 12:39:29;;;;;;;8.95;5.13;;;11.50;99.90;;;;;;5097929;28;20077;-58
2022/04/02 12:41:55;;;;;;;4.68;2.92;;;11.60;99.90;;;;;;5097915;28;20024;-58
2022/04/02 12:44:23;;;;;;;12.88;5.82;;;11.70;99.90;;;;;;5097568;28;20056;-58
2022/04/02 12:46:51;;;;;;;3.40;2.35;;;11.70;99.90;;;;;;5097450;28;20032;-58
2022/04/02 12:49:47;;;;;;;4.03;2.58;;;11.70;99.90;;;;;;5079277;28;20024;-58
2022/04/02 12:52:16;;;;;;;10.27;4.05;;;11.60;99.90;;;;;;5084394;28;20032;-58
2022/04/02 12:54:55;;;;;;;7.75;3.20;;;11.80;99.90;;;;;;5097557;28;20030;-58
2022/04/02 12:57:22;;;;;;;4.25;2.50;;;11.70;99.90;;;;;;5097495;28;20061;-58
2022/04/02 12:59:53;;;;;;;4.53;3.22;;;11.90;99.90;;;;;;5097196;28;20032;-58
2022/04/02 13:02:23;;;;;;;8.50;2.90;;;12.30;99.90;;;;;;5097454;28;20054;-58
2022/04/02 13:04:53;;;;;;;4.28;2.50;;;12.60;99.90;;;;;;5097311;28;20024;-58